Time,TemperatureF,DewpointF,PressureIn,WindDirection,WindDirectionDegrees,WindSpeedMPH,WindSpeedGustMPH,Humidity,HourlyPrecipIn,Conditions,Clouds,dailyrainin,SoftwareType,DateUTC
2013-01-27 00:00:00,32.0,-99.9,-100.00,East,98,8.0,11.0,-999,-99.99,,,-99.99,,2013-01-27 06:00:00,
2013-01-27 00:32:00,32.0,-99.9,-100.00,East,98,8.0,11.0,-999,-99.99,,,-99.99,,2013-01-27 06:32:00,
2013-01-27 00:42:00,32.0,-99.9,-100.00,East,98,8.0,11.0,-999,-99.99,,,-99.99,,2013-01-27 06:42:00,
2013-01-27 00:52:00,32.0,-99.9,-100.00,East,98,8.0,11.0,-999,-99.99,,,-99.99,,2013-01-27 06:52:00,
2013-01-27 01:00:00,32.0,-99.9,-100.00,East,87,3.0,12.0,-999,-99.99,,,-99.99,,2013-01-27 07:00:00,
2013-01-27 01:32:00,32.0,-99.9,-100.00,East,87,3.0,12.0,-999,-99.99,,,-99.99,,2013-01-27 07:32:00,
2013-01-27 01:42:00,32.0,-99.9,-100.00,East,87,3.0,12.0,-999,-99.99,,,-99.99,,2013-01-27 07:42:00,
2013-01-27 01:52:00,32.0,-99.9,-100.00,East,87,3.0,12.0,-999,-99.99,,,-99.99,,2013-01-27 07:52:00,
2013-01-27 02:00:00,31.0,-99.9,-100.00,ENE,67,4.0,12.0,-999,-99.99,,,-99.99,,2013-01-27 08:00:00,
2013-01-27 02:52:00,31.0,-99.9,-100.00,ENE,67,4.0,12.0,-999,-99.99,,,-99.99,,2013-01-27 08:52:00,
2013-01-27 03:00:00,31.0,-99.9,-100.00,ENE,75,21.0,21.0,-999,-99.99,,,-99.99,,2013-01-27 09:00:00,
2013-01-27 03:52:00,31.0,-99.9,-100.00,ENE,75,21.0,21.0,-999,-99.99,,,-99.99,,2013-01-27 09:52:00,
2013-01-27 04:00:00,32.0,-99.9,-100.00,ENE,67,9.0,18.0,-999,-99.99,,,-99.99,,2013-01-27 10:00:00,
2013-01-27 04:32:00,32.0,-99.9,-100.00,ENE,67,9.0,18.0,-999,-99.99,,,-99.99,,2013-01-27 10:32:00,
2013-01-27 04:42:00,32.0,-99.9,-100.00,ENE,67,9.0,18.0,-999,-99.99,,,-99.99,,2013-01-27 10:42:00,
2013-01-27 04:52:00,32.0,-99.9,-100.00,ENE,67,9.0,18.0,-999,-99.99,,,-99.99,,2013-01-27 10:52:00,
2013-01-27 05:00:00,33.0,-99.9,-100.00,ESE,122,3.0,15.0,-999,-99.99,,,-99.99,,2013-01-27 11:00:00,
2013-01-27 05:32:00,32.0,-99.9,-100.00,East,100,8.0,15.0,-999,-99.99,,,-99.99,,2013-01-27 11:32:00,
2013-01-27 05:42:00,32.0,-99.9,-100.00,East,100,8.0,15.0,-999,-99.99,,,-99.99,,2013-01-27 11:42:00,
2013-01-27 05:52:00,33.0,-99.9,-100.00,ESE,122,3.0,15.0,-999,-99.99,,,-99.99,,2013-01-27 11:52:00,
2013-01-27 06:00:00,32.0,-99.9,-100.00,NE,56,4.0,14.0,-999,-99.99,,,-99.99,,2013-01-27 12:00:00,
2013-01-27 06:33:00,32.0,-99.9,-100.00,NE,56,4.0,14.0,-999,-99.99,,,-99.99,,2013-01-27 12:33:00,
2013-01-27 06:42:00,32.0,-99.9,-100.00,NE,56,4.0,14.0,-999,-99.99,,,-99.99,,2013-01-27 12:42:00,
2013-01-27 06:53:00,32.0,-99.9,-100.00,NE,56,4.0,14.0,-999,-99.99,,,-99.99,,2013-01-27 12:53:00,
2013-01-27 07:00:00,32.0,-99.9,-100.00,ESE,105,6.0,10.0,-999,-99.99,,,-99.99,,2013-01-27 13:00:00,
2013-01-27 07:32:00,32.0,-99.9,-100.00,ESE,105,6.0,10.0,-999,-99.99,,,-99.99,,2013-01-27 13:32:00,
2013-01-27 07:42:00,32.0,-99.9,-100.00,ESE,105,6.0,10.0,-999,-99.99,,,-99.99,,2013-01-27 13:42:00,
2013-01-27 07:52:00,32.0,-99.9,-100.00,ESE,105,6.0,10.0,-999,-99.99,,,-99.99,,2013-01-27 13:52:00,
2013-01-27 08:00:00,32.0,-99.9,-100.00,NE,49,4.0,10.0,-999,-99.99,,,-99.99,,2013-01-27 14:00:00,
2013-01-27 08:33:00,32.0,-99.9,-100.00,NE,49,4.0,10.0,-999,-99.99,,,-99.99,,2013-01-27 14:33:00,
2013-01-27 08:43:00,32.0,-99.9,-100.00,NE,49,4.0,10.0,-999,-99.99,,,-99.99,,2013-01-27 14:43:00,
2013-01-27 08:53:00,32.0,-99.9,-100.00,NE,49,4.0,10.0,-999,-99.99,,,-99.99,,2013-01-27 14:53:00,
2013-01-27 09:00:00,32.0,-99.9,-100.00,ENE,75,8.0,10.0,-999,-99.99,,,-99.99,,2013-01-27 15:00:00,
2013-01-27 09:33:00,32.0,-99.9,-100.00,ENE,75,8.0,10.0,-999,-99.99,,,-99.99,,2013-01-27 15:33:00,
2013-01-27 09:43:00,32.0,-99.9,-100.00,ENE,75,8.0,10.0,-999,-99.99,,,-99.99,,2013-01-27 15:43:00,
2013-01-27 09:53:00,32.0,-99.9,-100.00,ENE,75,8.0,10.0,-999,-99.99,,,-99.99,,2013-01-27 15:53:00,
2013-01-27 10:00:00,32.0,-99.9,-100.00,SSE,154,1.0,10.0,-999,-99.99,,,-99.99,,2013-01-27 16:00:00,
2013-01-27 10:33:00,32.0,-99.9,-100.00,SSE,154,1.0,10.0,-999,-99.99,,,-99.99,,2013-01-27 16:33:00,
2013-01-27 10:42:00,32.0,-99.9,-100.00,SSE,154,1.0,10.0,-999,-99.99,,,-99.99,,2013-01-27 16:42:00,
2013-01-27 10:53:00,32.0,-99.9,-100.00,SSE,154,1.0,10.0,-999,-99.99,,,-99.99,,2013-01-27 16:53:00,
2013-01-27 11:00:00,33.0,-99.9,-100.00,ENE,75,6.0,10.0,-999,-99.99,,,-99.99,,2013-01-27 17:00:00,
2013-01-27 11:33:00,33.0,-99.9,-100.00,ENE,75,6.0,10.0,-999,-99.99,,,-99.99,,2013-01-27 17:33:00,
2013-01-27 11:42:00,33.0,-99.9,-100.00,ENE,75,6.0,10.0,-999,-99.99,,,-99.99,,2013-01-27 17:42:00,
2013-01-27 11:53:00,33.0,-99.9,-100.00,ENE,75,6.0,10.0,-999,-99.99,,,-99.99,,2013-01-27 17:53:00,
2013-01-27 12:00:00,32.0,-99.9,-100.00,ESE,111,2.0,9.0,-999,-99.99,,,-99.99,,2013-01-27 18:00:00,
2013-01-27 12:33:00,32.0,-99.9,-100.00,ESE,111,2.0,9.0,-999,-99.99,,,-99.99,,2013-01-27 18:33:00,
2013-01-27 12:42:00,32.0,-99.9,-100.00,ESE,111,2.0,9.0,-999,-99.99,,,-99.99,,2013-01-27 18:42:00,
2013-01-27 12:53:00,32.0,-99.9,-100.00,ESE,111,2.0,9.0,-999,-99.99,,,-99.99,,2013-01-27 18:53:00,
2013-01-27 13:00:00,32.0,-99.9,-100.00,East,79,3.0,6.0,-999,-99.99,,,-99.99,,2013-01-27 19:00:00,
2013-01-27 13:33:00,32.0,-99.9,-100.00,East,79,3.0,6.0,-999,-99.99,,,-99.99,,2013-01-27 19:33:00,
2013-01-27 13:42:00,32.0,-99.9,-100.00,East,79,3.0,6.0,-999,-99.99,,,-99.99,,2013-01-27 19:42:00,
2013-01-27 13:52:00,32.0,-99.9,-100.00,East,79,3.0,6.0,-999,-99.99,,,-99.99,,2013-01-27 19:52:00,
2013-01-27 14:00:00,33.0,-99.9,-100.00,East,85,1.0,5.0,-999,-99.99,,,-99.99,,2013-01-27 20:00:00,
2013-01-27 14:33:00,33.0,-99.9,-100.00,East,85,1.0,5.0,-999,-99.99,,,-99.99,,2013-01-27 20:33:00,
2013-01-27 14:43:00,33.0,-99.9,-100.00,East,85,1.0,5.0,-999,-99.99,,,-99.99,,2013-01-27 20:43:00,
2013-01-27 14:52:00,33.0,-99.9,-100.00,East,85,1.0,5.0,-999,-99.99,,,-99.99,,2013-01-27 20:52:00,
2013-01-27 15:00:00,33.0,-99.9,-100.00,East,83,3.0,6.0,-999,-99.99,,,-99.99,,2013-01-27 21:00:00,
2013-01-27 15:33:00,33.0,-99.9,-100.00,East,83,3.0,6.0,-999,-99.99,,,-99.99,,2013-01-27 21:33:00,
2013-01-27 15:43:00,33.0,-99.9,-100.00,East,83,3.0,6.0,-999,-99.99,,,-99.99,,2013-01-27 21:43:00,
2013-01-27 15:52:00,33.0,-99.9,-100.00,East,83,3.0,6.0,-999,-99.99,,,-99.99,,2013-01-27 21:52:00,
2013-01-27 17:00:00,34.0,-99.9,-100.00,ENE,75,3.0,7.0,-999,-99.99,,,-99.99,,2013-01-27 23:00:00,
2013-01-27 17:32:00,34.0,-99.9,-100.00,ENE,75,3.0,7.0,-999,-99.99,,,-99.99,,2013-01-27 23:32:00,
2013-01-27 17:42:00,34.0,-99.9,-100.00,ENE,75,3.0,7.0,-999,-99.99,,,-99.99,,2013-01-27 23:42:00,
2013-01-27 17:53:00,34.0,-99.9,-100.00,ENE,75,3.0,7.0,-999,-99.99,,,-99.99,,2013-01-27 23:53:00,
2013-01-27 18:00:00,34.0,-99.9,-100.00,ESE,110,0.0,4.0,-999,-99.99,,,-99.99,,2013-01-28 00:00:00,
2013-01-27 18:33:00,34.0,-99.9,-100.00,ESE,110,0.0,4.0,-999,-99.99,,,-99.99,,2013-01-28 00:33:00,
2013-01-27 18:42:00,34.0,-99.9,-100.00,ESE,110,0.0,4.0,-999,-99.99,,,-99.99,,2013-01-28 00:42:00,
2013-01-27 18:52:00,34.0,-99.9,-100.00,ESE,110,0.0,4.0,-999,-99.99,,,-99.99,,2013-01-28 00:52:00,
2013-01-27 19:00:00,34.0,-99.9,-100.00,East,90,3.0,3.0,-999,-99.99,,,-99.99,,2013-01-28 01:00:00,
2013-01-27 19:33:00,34.0,-99.9,-100.00,East,90,3.0,3.0,-999,-99.99,,,-99.99,,2013-01-28 01:33:00,
2013-01-27 19:43:00,34.0,-99.9,-100.00,East,90,3.0,3.0,-999,-99.99,,,-99.99,,2013-01-28 01:43:00,
2013-01-27 19:52:00,34.0,-99.9,-100.00,East,90,3.0,3.0,-999,-99.99,,,-99.99,,2013-01-28 01:52:00,
2013-01-27 20:00:00,34.0,-99.9,-100.00,North,350,0.0,2.0,-999,-99.99,,,-99.99,,2013-01-28 02:00:00,
2013-01-27 20:32:00,34.0,-99.9,-100.00,North,350,0.0,2.0,-999,-99.99,,,-99.99,,2013-01-28 02:32:00,
2013-01-27 20:42:00,34.0,-99.9,-100.00,North,350,0.0,2.0,-999,-99.99,,,-99.99,,2013-01-28 02:42:00,
2013-01-27 20:53:00,34.0,-99.9,-100.00,North,350,0.0,2.0,-999,-99.99,,,-99.99,,2013-01-28 02:53:00,
2013-01-27 21:00:00,34.0,-99.9,-100.00,SSW,210,0.0,4.0,-999,-99.99,,,-99.99,,2013-01-28 03:00:00,
2013-01-27 21:32:00,34.0,-99.9,-100.00,SSW,210,0.0,4.0,-999,-99.99,,,-99.99,,2013-01-28 03:32:00,
2013-01-27 21:42:00,34.0,-99.9,-100.00,SSW,210,0.0,4.0,-999,-99.99,,,-99.99,,2013-01-28 03:42:00,
2013-01-27 21:53:00,34.0,-99.9,-100.00,SSW,210,0.0,4.0,-999,-99.99,,,-99.99,,2013-01-28 03:53:00,
2013-01-27 22:00:00,34.0,-99.9,-100.00,NW,326,2.0,5.0,-999,-99.99,,,-99.99,,2013-01-28 04:00:00,
2013-01-27 22:32:00,34.0,-99.9,-100.00,NW,326,2.0,5.0,-999,-99.99,,,-99.99,,2013-01-28 04:32:00,
2013-01-27 22:42:00,34.0,-99.9,-100.00,NW,326,2.0,5.0,-999,-99.99,,,-99.99,,2013-01-28 04:42:00,
2013-01-27 22:52:00,34.0,-99.9,-100.00,NW,326,2.0,5.0,-999,-99.99,,,-99.99,,2013-01-28 04:52:00,
2013-01-27 23:00:00,35.0,-99.9,-100.00,NW,310,0.0,2.0,-999,-99.99,,,-99.99,,2013-01-28 05:00:00,
2013-01-27 23:32:00,35.0,-99.9,-100.00,NW,310,0.0,2.0,-999,-99.99,,,-99.99,,2013-01-28 05:32:00,
2013-01-27 23:42:00,35.0,-99.9,-100.00,NW,310,0.0,2.0,-999,-99.99,,,-99.99,,2013-01-28 05:42:00,
2013-01-27 23:53:00,35.0,-99.9,-100.00,NW,310,0.0,2.0,-999,-99.99,,,-99.99,,2013-01-28 05:53:00,